Time;durP1;ratioP1;P1;durP2;ratioP2;P2;SDS_P1;SDS_P2;PMS_P1;PMS_P2;Temp;Humidity;BMP_temperature;BMP_pressure;BME280_temperature;BME280_humidity;BME280_pressure;Samples;Min_cycle;Max_cycle;Signal;HPM_P1;HPM_P2
2022/08/11 00:02:26;;;;;;;4.20;1.65;;;17.20;80.20;;;;;;4853809;29;20052;-70
2022/08/11 00:04:54;;;;;;;7.50;2.22;;;17.30;80.10;;;;;;4859840;29;20443;-71
2022/08/11 00:07:20;;;;;;;5.03;2.10;;;17.30;80.10;;;;;;4854628;29;20050;-70
2022/08/11 00:09:46;;;;;;;5.05;2.25;;;17.30;79.70;;;;;;4858885;29;20112;-70
2022/08/11 00:12:14;;;;;;;5.82;2.22;;;17.30;79.90;;;;;;4853524;29;20030;-70
2022/08/11 00:14:41;;;;;;;9.05;2.20;;;17.30;79.90;;;;;;4856895;29;20038;-70
2022/08/11 00:17:11;;;;;;;4.80;2.28;;;17.20;80.00;;;;;;4851970;29;20041;-70
2022/08/11 00:19:41;;;;;;;6.47;2.45;;;17.30;79.80;;;;;;4858853;29;20129;-70
2022/08/11 00:22:08;;;;;;;9.55;2.45;;;17.20;79.70;;;;;;4839827;29;20053;-70
2022/08/11 00:24:37;;;;;;;5.57;2.05;;;17.20;79.90;;;;;;4852050;29;20033;-69
2022/08/11 00:27:04;;;;;;;4.22;2.20;;;17.10;80.10;;;;;;4854640;29;20525;-70
2022/08/11 00:29:31;;;;;;;5.18;1.98;;;17.10;79.80;;;;;;4854602;29;20100;-70
2022/08/11 00:32:00;;;;;;;5.95;2.20;;;17.10;80.20;;;;;;4854631;29;20415;-70
2022/08/11 00:34:29;;;;;;;4.07;2.05;;;17.00;80.10;;;;;;4855281;29;20028;-69
2022/08/11 00:37:08;;;;;;;6.75;2.40;;;17.00;80.60;;;;;;4856473;29;20433;-70
2022/08/11 00:39:42;;;;;;;7.43;2.03;;;17.00;80.60;;;;;;4857494;29;20461;-70
2022/08/11 00:42:42;;;;;;;3.80;2.10;;;17.00;80.70;;;;;;4854057;29;20029;-70
2022/08/11 00:45:22;;;;;;;3.85;2.10;;;17.00;80.80;;;;;;4816292;29;20381;-70
2022/08/11 00:48:26;;;;;;;4.23;2.13;;;16.90;80.90;;;;;;4856951;29;20041;-70
2022/08/11 00:51:29;;;;;;;8.95;2.45;;;16.90;80.90;;;;;;4848086;29;20062;-70
2022/08/11 00:54:38;;;;;;;3.70;2.17;;;16.90;81.20;;;;;;4855343;29;20037;-69
2022/08/11 00:57:41;;;;;;;9.15;2.38;;;16.90;81.30;;;;;;4858647;29;20149;-72
2022/08/11 01:00:14;;;;;;;6.93;2.42;;;16.80;81.70;;;;;;4853104;29;20148;-70
2022/08/11 01:03:04;;;;;;;5.05;1.90;;;16.80;81.60;;;;;;4850735;29;20038;-72
2022/08/11 01:05:42;;;;;;;3.47;2.10;;;16.70;81.70;;;;;;4853579;29;20092;-70
2022/08/11 01:08:24;;;;;;;4.70;2.22;;;16.70;81.70;;;;;;4849407;29;20507;-70
2022/08/11 01:11:27;;;;;;;5.28;2.10;;;16.70;81.80;;;;;;4847343;29;20529;-70
2022/08/11 01:14:13;;;;;;;4.85;2.03;;;16.70;81.80;;;;;;4849086;29;20068;-70
2022/08/11 01:17:16;;;;;;;3.58;2.10;;;16.60;82.00;;;;;;4854732;29;20076;-70
2022/08/11 01:20:01;;;;;;;5.57;1.92;;;16.60;82.10;;;;;;4853940;29;20478;-71
2022/08/11 01:22:36;;;;;;;3.97;2.63;;;16.50;82.40;;;;;;4854762;29;20029;-70
2022/08/11 01:25:39;;;;;;;2.90;1.88;;;16.50;82.50;;;;;;4852334;29;20081;-70
2022/08/11 01:28:43;;;;;;;4.32;2.10;;;16.50;82.60;;;;;;4854513;29;20052;-69
2022/08/11 01:31:14;;;;;;;3.50;2.22;;;16.50;82.60;;;;;;4813220;29;20113;-70
2022/08/11 01:34:30;;;;;;;5.55;2.17;;;16.50;82.70;;;;;;4855219;29;20037;-71
2022/08/11 01:37:05;;;;;;;5.35;2.40;;;16.50;82.80;;;;;;4851190;29;20062;-70
2022/08/11 01:40:03;;;;;;;4.43;2.25;;;16.40;82.80;;;;;;4853259;29;20101;-70
2022/08/11 01:45:58;;;;;;;6.43;2.60;;;16.30;83.20;;;;;;4854130;29;20518;-71
2022/08/11 01:48:42;;;;;;;5.57;2.10;;;16.30;83.10;;;;;;4853429;29;20160;-70
2022/08/11 01:51:34;;;;;;;6.45;2.72;;;16.30;83.40;;;;;;4847592;29;20037;-70
2022/08/11 01:54:03;;;;;;;5.28;2.40;;;16.20;83.70;;;;;;4813802;29;20061;-70
2022/08/11 01:56:35;;;;;;;4.65;2.38;;;16.20;83.80;;;;;;4853392;29;20474;-69
2022/08/11 01:59:14;;;;;;;6.70;2.40;;;16.20;83.90;;;;;;4850590;29;20083;-70
2022/08/11 02:02:18;;;;;;;6.13;3.30;;;16.20;83.80;;;;;;4856292;29;20034;-70
2022/08/11 02:05:02;;;;;;;4.70;2.38;;;16.20;83.90;;;;;;4857715;29;20454;-70
2022/08/11 02:07:48;;;;;;;5.03;2.50;;;16.30;84.30;;;;;;4853485;29;20117;-70
2022/08/11 02:14:19;;;;;;;7.03;2.40;;;16.10;84.00;;;;;;4855476;29;20044;-71
2022/08/11 02:16:57;;;;;;;5.32;2.38;;;16.10;84.10;;;;;;4851448;29;20337;-70
2022/08/11 02:25:55;;;;;;;6.55;2.60;;;16.00;84.70;;;;;;4853219;29;20044;-70
2022/08/11 02:29:04;;;;;;;10.00;2.78;;;16.00;84.70;;;;;;4855733;29;20033;-70
2022/08/11 02:35:00;;;;;;;5.30;2.60;;;16.00;84.90;;;;;;4855332;29;20524;-69
2022/08/11 02:37:44;;;;;;;7.70;2.60;;;16.00;85.00;;;;;;4853365;29;20060;-69
2022/08/11 02:40:30;;;;;;;5.93;2.42;;;16.00;84.80;;;;;;4843100;29;20136;-70
2022/08/11 02:43:18;;;;;;;3.50;2.28;;;16.00;85.20;;;;;;4856430;29;20061;-70
2022/08/11 02:46:05;;;;;;;5.50;2.42;;;15.90;85.40;;;;;;4855257;29;20036;-70
2022/08/11 02:51:58;;;;;;;5.30;2.53;;;15.70;85.60;;;;;;4856819;29;20060;-70
2022/08/11 02:55:05;;;;;;;5.45;2.72;;;15.60;85.50;;;;;;4849957;29;20438;-70
2022/08/11 02:57:56;;;;;;;6.03;2.50;;;15.50;85.90;;;;;;4854523;29;20049;-70
2022/08/11 03:00:24;;;;;;;5.20;2.38;;;15.50;86.00;;;;;;4858189;29;20061;-70
2022/08/11 03:03:12;;;;;;;4.88;2.45;;;15.40;86.20;;;;;;4842407;29;20354;-71
2022/08/11 03:05:48;;;;;;;5.03;2.70;;;15.30;85.80;;;;;;4853719;29;20118;-69
2022/08/11 03:08:50;;;;;;;4.93;2.63;;;15.30;86.30;;;;;;4856291;29;20375;-70
2022/08/11 03:17:44;;;;;;;4.28;2.67;;;15.10;87.30;;;;;;4846995;29;20559;-70
2022/08/11 03:20:41;;;;;;;9.32;3.10;;;15.00;87.00;;;;;;4856669;29;20061;-70
2022/08/11 03:23:07;;;;;;;7.35;2.70;;;15.00;87.10;;;;;;4858923;29;20074;-70
2022/08/11 03:26:00;;;;;;;5.10;2.65;;;15.00;87.40;;;;;;4852964;29;20444;-70
2022/08/11 03:28:35;;;;;;;6.43;2.72;;;15.00;87.10;;;;;;4856129;29;20041;-70
2022/08/11 03:31:26;;;;;;;3.85;2.70;;;14.90;87.70;;;;;;4856679;29;20073;-70
2022/08/11 03:34:02;;;;;;;7.28;2.67;;;14.90;88.00;;;;;;4852217;29;20046;-70
2022/08/11 03:37:05;;;;;;;5.57;2.70;;;14.90;88.20;;;;;;4856700;29;20109;-69
2022/08/11 03:40:08;;;;;;;8.65;2.80;;;14.90;88.20;;;;;;4853613;29;20098;-69
2022/08/11 03:42:55;;;;;;;6.63;2.83;;;14.90;88.20;;;;;;4850579;29;20033;-68
2022/08/11 03:45:58;;;;;;;7.78;3.35;;;14.80;87.80;;;;;;4857181;29;20026;-70
2022/08/11 03:48:48;;;;;;;7.55;3.20;;;14.80;88.20;;;;;;4849241;29;20443;-69
2022/08/11 03:51:23;;;;;;;5.35;3.20;;;14.80;88.10;;;;;;4852848;29;20098;-69
2022/08/11 03:54:24;;;;;;;3.65;2.55;;;14.80;88.10;;;;;;4853551;29;20041;-70
2022/08/11 03:57:37;;;;;;;9.32;3.15;;;14.80;88.40;;;;;;4855316;29;20049;-71
2022/08/11 04:00:09;;;;;;;7.22;3.10;;;14.70;88.40;;;;;;4855611;29;20105;-69
2022/08/11 04:03:10;;;;;;;4.97;2.78;;;14.70;88.30;;;;;;4853646;29;20037;-70
2022/08/11 04:06:12;;;;;;;8.15;2.95;;;14.70;88.60;;;;;;4851330;29;20033;-69
2022/08/11 04:09:15;;;;;;;9.13;3.28;;;14.80;88.90;;;;;;4853905;29;20037;-70
2022/08/11 04:12:08;;;;;;;7.53;3.25;;;14.80;89.00;;;;;;4854799;29;20033;-69
2022/08/11 04:18:44;;;;;;;6.13;3.13;;;14.90;88.80;;;;;;4856789;29;20550;-68
2022/08/11 04:21:41;;;;;;;6.00;2.97;;;15.00;88.50;;;;;;4847565;29;20049;-67
2022/08/11 04:24:47;;;;;;;5.45;2.85;;;15.00;88.20;;;;;;4847588;29;20113;-68
2022/08/11 04:27:45;;;;;;;6.75;3.20;;;15.00;88.20;;;;;;4849663;29;20075;-67
2022/08/11 04:30:29;;;;;;;4.97;2.85;;;15.00;88.20;;;;;;4855062;29;20044;-69
2022/08/11 04:32:58;;;;;;;6.38;2.97;;;15.10;88.20;;;;;;4833923;29;20072;-68
2022/08/11 04:35:50;;;;;;;6.95;2.95;;;15.10;88.00;;;;;;4856543;29;21484;-67
2022/08/11 04:38:53;;;;;;;6.70;3.15;;;15.20;87.90;;;;;;4856464;29;20037;-67
2022/08/11 04:45:18;;;;;;;6.47;3.33;;;15.30;88.00;;;;;;4851889;29;20039;-68
2022/08/11 05:02:59;;;;;;;5.38;2.72;;;15.50;87.60;;;;;;4850699;29;20451;-67
2022/08/11 05:05:51;;;;;;;6.10;2.85;;;15.60;87.30;;;;;;4850438;29;20489;-68
2022/08/11 05:08:49;;;;;;;4.68;3.10;;;15.60;87.80;;;;;;4855452;29;20124;-67
2022/08/11 05:11:35;;;;;;;5.68;2.92;;;15.60;87.60;;;;;;4851319;29;20094;-68
2022/08/11 05:37:01;;;;;;;6.13;3.10;;;16.10;86.50;;;;;;4856185;29;20069;-69
2022/08/11 05:56:17;;;;;;;5.10;3.03;;;16.80;84.70;;;;;;4869085;29;20068;-70
2022/08/11 05:58:51;;;;;;;6.32;2.67;;;16.90;84.60;;;;;;4859805;29;20052;-71
2022/08/11 06:01:23;;;;;;;8.95;2.83;;;17.00;83.80;;;;;;4856735;29;20033;-70
2022/08/11 06:06:40;;;;;;;3.53;2.30;;;17.50;81.50;;;;;;4860582;29;20068;-70
2022/08/11 06:09:07;;;;;;;5.28;2.40;;;17.70;80.60;;;;;;4858583;29;20144;-71
2022/08/11 06:11:41;;;;;;;5.88;2.40;;;17.80;80.20;;;;;;4860554;29;20030;-71
2022/08/11 06:14:11;;;;;;;6.28;2.53;;;18.00;79.90;;;;;;4849751;29;20037;-71
2022/08/11 06:16:39;;;;;;;5.00;2.47;;;18.20;78.80;;;;;;4866186;29;20036;-70
2022/08/11 06:19:05;;;;;;;5.45;2.40;;;18.30;78.50;;;;;;4857450;29;20033;-71
2022/08/11 06:21:34;;;;;;;3.58;2.22;;;18.40;79.70;;;;;;4860533;29;20036;-71
2022/08/11 06:24:03;;;;;;;4.00;2.00;;;18.40;79.50;;;;;;4856195;29;20046;-71
2022/08/11 06:26:30;;;;;;;4.07;2.10;;;18.50;79.10;;;;;;4852595;29;20041;-73
2022/08/11 06:28:58;;;;;;;3.80;2.03;;;18.80;76.10;;;;;;4856619;29;20080;-68
2022/08/11 06:31:24;;;;;;;5.18;2.25;;;19.00;75.60;;;;;;4830882;29;20026;-69
2022/08/11 06:33:49;;;;;;;4.60;2.10;;;19.10;75.20;;;;;;4864041;29;20314;-69
2022/08/11 06:36:33;;;;;;;5.07;2.20;;;19.30;74.00;;;;;;4858667;29;20038;-69
2022/08/11 06:39:25;;;;;;;4.78;2.63;;;19.30;75.40;;;;;;4854646;29;20110;-69
2022/08/11 06:42:07;;;;;;;3.92;2.10;;;19.40;76.20;;;;;;4857925;29;20037;-71
2022/08/11 06:44:41;;;;;;;4.10;2.20;;;19.60;74.50;;;;;;4855851;29;20025;-69
2022/08/11 06:47:08;;;;;;;8.23;2.10;;;19.70;75.60;;;;;;4853936;29;20108;-69
2022/08/11 06:52:30;;;;;;;9.13;2.50;;;20.00;73.20;;;;;;4859134;29;20374;-69
2022/08/11 06:55:05;;;;;;;6.22;2.78;;;20.00;74.10;;;;;;4854405;29;20042;-69
2022/08/11 07:00:28;;;;;;;6.07;2.13;;;20.30;73.10;;;;;;4856252;29;20117;-70
2022/08/11 07:03:09;;;;;;;5.43;2.20;;;20.30;73.40;;;;;;4855178;29;20442;-70
2022/08/11 07:05:46;;;;;;;7.80;2.13;;;20.60;71.70;;;;;;4856992;29;20534;-70
2022/08/11 07:17:13;;;;;;;3.80;1.90;;;21.10;68.50;;;;;;4855035;29;20125;-70
2022/08/11 07:31:13;;;;;;;3.55;1.88;;;21.90;69.30;;;;;;4852944;29;20109;-70
2022/08/11 07:33:56;;;;;;;5.63;2.03;;;22.00;68.80;;;;;;4853275;29;20033;-70
2022/08/11 07:36:27;;;;;;;6.22;2.65;;;22.30;67.50;;;;;;4856483;29;20049;-71
2022/08/11 07:38:55;;;;;;;3.67;2.03;;;22.50;67.80;;;;;;4854256;29;20037;-72
2022/08/11 07:41:24;;;;;;;6.63;2.13;;;22.60;66.00;;;;;;4851568;29;20351;-70
2022/08/11 07:43:53;;;;;;;6.25;2.08;;;22.80;66.50;;;;;;4857773;29;20065;-71
2022/08/11 07:54:38;;;;;;;4.03;2.20;;;23.40;62.90;;;;;;4856398;29;20080;-70
2022/08/11 08:19:13;;;;;;;5.95;2.00;;;24.70;59.10;;;;;;4856364;29;20121;-70
2022/08/11 08:21:40;;;;;;;5.10;2.00;;;24.90;57.10;;;;;;4859391;29;20038;-70
2022/08/11 08:24:06;;;;;;;3.95;1.83;;;25.10;57.40;;;;;;4858174;29;20132;-70
2022/08/11 08:32:03;;;;;;;4.60;1.67;;;25.60;55.70;;;;;;4845845;29;20060;-70
2022/08/11 08:34:29;;;;;;;4.00;1.85;;;25.70;54.20;;;;;;4858371;29;20180;-71
2022/08/11 08:36:55;;;;;;;5.40;2.00;;;25.90;53.10;;;;;;4856782;29;20041;-71
2022/08/11 08:39:21;;;;;;;4.90;1.98;;;26.10;54.10;;;;;;4857934;29;20049;-72
2022/08/11 08:41:54;;;;;;;3.70;2.35;;;26.20;53.00;;;;;;4854482;29;20112;-71
2022/08/11 08:44:21;;;;;;;3.88;2.20;;;26.20;50.20;;;;;;4838827;29;20037;-70
2022/08/11 08:46:53;;;;;;;6.68;2.17;;;26.40;53.00;;;;;;4857420;29;20037;-71
2022/08/11 08:49:25;;;;;;;5.70;2.03;;;26.40;52.50;;;;;;4857833;29;20045;-71
2022/08/11 08:52:00;;;;;;;5.30;1.75;;;26.50;52.00;;;;;;4857108;29;20037;-70
2022/08/11 08:54:33;;;;;;;3.13;1.70;;;26.50;48.90;;;;;;4839384;29;20037;-71
2022/08/11 08:57:01;;;;;;;17.23;2.03;;;26.80;49.50;;;;;;4841010;29;20055;-70
2022/08/11 08:59:27;;;;;;;4.10;1.45;;;26.70;47.70;;;;;;4839974;29;20045;-70
2022/08/11 09:02:02;;;;;;;5.05;1.83;;;26.90;47.30;;;;;;4850759;29;20029;-71
2022/08/11 09:04:29;;;;;;;5.32;2.15;;;27.00;47.00;;;;;;4848420;29;20486;-70
2022/08/11 09:06:57;;;;;;;2.60;1.80;;;27.30;49.20;;;;;;4849130;29;20089;-71
2022/08/11 09:09:23;;;;;;;4.03;1.55;;;27.60;48.70;;;;;;4855604;29;20149;-70
2022/08/11 09:11:49;;;;;;;3.63;1.73;;;27.50;46.90;;;;;;4853964;29;20033;-72
2022/08/11 09:14:17;;;;;;;2.95;1.40;;;27.70;46.20;;;;;;4853164;29;20041;-71
2022/08/11 09:16:44;;;;;;;3.85;1.50;;;28.00;45.70;;;;;;4850491;29;20505;-71
2022/08/11 09:19:13;;;;;;;1.65;1.15;;;27.90;44.80;;;;;;4854438;29;20033;-70
2022/08/11 09:21:43;;;;;;;3.88;1.58;;;28.00;44.60;;;;;;4856033;29;20038;-73
2022/08/11 09:27:02;;;;;;;6.57;1.80;;;27.80;44.70;;;;;;4852839;29;20056;-70
2022/08/11 09:29:30;;;;;;;2.00;1.33;;;27.90;45.40;;;;;;4850025;29;20040;-73
2022/08/11 09:31:57;;;;;;;4.78;1.90;;;27.80;42.70;;;;;;4849662;29;20033;-71
2022/08/11 09:34:25;;;;;;;3.00;1.52;;;27.90;42.30;;;;;;4859362;29;20030;-71
2022/08/11 09:45:19;;;;;;;3.58;1.73;;;28.30;44.10;;;;;;4856952;29;20092;-71
2022/08/11 09:47:45;;;;;;;3.45;1.80;;;28.00;43.40;;;;;;4849030;29;20049;-71
2022/08/11 09:50:15;;;;;;;5.10;1.45;;;28.30;42.20;;;;;;4854683;29;20026;-71
2022/08/11 09:52:44;;;;;;;2.95;1.20;;;28.40;41.30;;;;;;4856914;29;20028;-71
2022/08/11 09:55:12;;;;;;;5.72;1.75;;;28.80;40.90;;;;;;4856568;29;20042;-72
2022/08/11 10:00:36;;;;;;;3.70;1.70;;;28.50;41.30;;;;;;4854225;29;20117;-72
2022/08/11 10:03:05;;;;;;;2.97;1.70;;;28.60;41.00;;;;;;4856828;29;20125;-72
2022/08/11 10:08:18;;;;;;;3.08;1.23;;;29.00;41.50;;;;;;4855903;29;20065;-70
2022/08/11 10:10:45;;;;;;;4.38;1.60;;;28.80;37.20;;;;;;4856616;29;20025;-71
2022/08/11 10:13:20;;;;;;;3.50;1.80;;;29.10;40.10;;;;;;4852351;29;20158;-73
2022/08/11 10:15:47;;;;;;;3.45;1.40;;;29.50;41.50;;;;;;4848811;29;20042;-71
2022/08/11 10:18:41;;;;;;;2.03;1.20;;;29.50;39.00;;;;;;4855381;29;20038;-71
2022/08/11 10:21:27;;;;;;;2.78;1.20;;;29.80;37.90;;;;;;4843910;29;20038;-71
2022/08/11 10:26:51;;;;;;;2.80;1.30;;;30.00;38.80;;;;;;4850554;29;20032;-71
2022/08/11 10:34:48;;;;;;;2.13;1.17;;;30.10;38.90;;;;;;4858493;29;20405;-73
2022/08/11 10:37:16;;;;;;;3.13;1.20;;;29.70;37.50;;;;;;4858800;29;20533;-71
2022/08/11 10:39:41;;;;;;;3.17;1.17;;;29.90;35.80;;;;;;4859026;29;20208;-74
2022/08/11 10:44:54;;;;;;;3.75;1.70;;;30.30;37.50;;;;;;4861705;29;20116;-71
2022/08/11 10:47:38;;;;;;;3.53;1.52;;;30.30;37.00;;;;;;4859295;29;20042;-71
2022/08/11 10:58:45;;;;;;;3.67;1.70;;;30.40;36.20;;;;;;4860948;29;20183;-71
2022/08/11 11:01:12;;;;;;;3.15;1.58;;;30.70;37.70;;;;;;4854829;29;20041;-71
2022/08/11 11:03:38;;;;;;;4.63;1.40;;;31.00;36.00;;;;;;4858831;29;20426;-72
2022/08/11 11:06:51;;;;;;;2.33;1.35;;;31.40;36.00;;;;;;4860348;29;20351;-71
2022/08/11 11:09:22;;;;;;;3.42;1.40;;;30.50;36.90;;;;;;4849545;29;20098;-70
2022/08/11 11:17:55;;;;;;;3.22;1.20;;;31.20;33.20;;;;;;4859203;29;20032;-71
2022/08/11 11:20:27;;;;;;;2.55;1.00;;;31.30;33.20;;;;;;4857963;29;20036;-71
2022/08/11 11:22:59;;;;;;;3.08;1.10;;;31.90;30.00;;;;;;4859509;29;20291;-72
2022/08/11 11:26:09;;;;;;;3.42;1.20;;;32.00;30.60;;;;;;4854878;29;20076;-71
2022/08/11 11:28:53;;;;;;;2.58;1.05;;;32.10;31.50;;;;;;4830395;29;20212;-71
2022/08/11 11:31:40;;;;;;;5.38;1.27;;;32.20;33.00;;;;;;4854063;29;20068;-71
2022/08/11 11:34:27;;;;;;;3.80;1.35;;;31.90;32.50;;;;;;4852211;29;20109;-71
2022/08/11 11:36:57;;;;;;;4.15;1.13;;;31.90;34.00;;;;;;4854539;29;20070;-71
2022/08/11 11:39:26;;;;;;;4.18;1.20;;;31.70;34.60;;;;;;4857754;29;20033;-71
2022/08/11 11:41:54;;;;;;;2.83;1.15;;;32.20;33.90;;;;;;4859037;29;20040;-71
2022/08/11 11:44:24;;;;;;;2.40;1.17;;;32.10;33.10;;;;;;4852850;29;20418;-72
2022/08/11 11:46:50;;;;;;;3.38;1.20;;;32.30;30.70;;;;;;4857741;29;20379;-72
2022/08/11 11:49:23;;;;;;;1.58;1.02;;;31.90;32.30;;;;;;4859125;29;20390;-72
2022/08/11 11:51:53;;;;;;;4.35;1.40;;;32.40;31.70;;;;;;4858904;29;20033;-71
2022/08/11 11:54:25;;;;;;;4.70;1.27;;;32.90;34.20;;;;;;4857153;29;20033;-72
2022/08/11 11:56:52;;;;;;;4.00;1.08;;;33.00;31.10;;;;;;4859330;29;20049;-72
2022/08/11 12:02:06;;;;;;;2.83;0.95;;;32.80;30.80;;;;;;4855269;29;20466;-71
2022/08/11 12:04:32;;;;;;;4.97;1.25;;;32.80;31.40;;;;;;4857915;29;20063;-71
2022/08/11 12:09:45;;;;;;;1.75;1.10;;;33.40;29.90;;;;;;4858403;29;20109;-73
2022/08/11 12:14:56;;;;;;;3.15;1.20;;;34.00;30.60;;;;;;4857382;29;20477;-71
2022/08/11 12:17:23;;;;;;;5.35;1.02;;;34.20;28.70;;;;;;4857785;29;20033;-71
2022/08/11 12:19:49;;;;;;;1.80;1.00;;;34.30;29.20;;;;;;4854939;29;20108;-72
2022/08/11 12:27:45;;;;;;;1.60;1.00;;;34.90;28.50;;;;;;4854813;29;20524;-72
2022/08/11 12:30:12;;;;;;;4.38;1.15;;;35.00;30.30;;;;;;4853052;29;20635;-71
2022/08/11 12:32:39;;;;;;;3.78;1.25;;;34.50;29.80;;;;;;4857659;29;20461;-71
2022/08/11 12:35:06;;;;;;;3.35;1.33;;;35.10;30.10;;;;;;4853999;29;20041;-72
2022/08/11 12:37:39;;;;;;;1.65;0.85;;;34.90;27.80;;;;;;4857865;29;20928;-71
2022/08/11 12:45:45;;;;;;;2.80;1.17;;;36.00;28.10;;;;;;4854682;29;20040;-71
2022/08/11 12:54:16;;;;;;;2.15;1.27;;;35.80;26.50;;;;;;4853153;29;20040;-72
2022/08/11 13:05:04;;;;;;;3.70;1.23;;;36.80;28.10;;;;;;4851148;29;20089;-72
2022/08/11 13:07:32;;;;;;;3.53;1.27;;;37.20;27.50;;;;;;4854132;29;20045;-72
2022/08/11 13:09:59;;;;;;;4.22;1.13;;;36.80;25.90;;;;;;4854205;29;20643;-71
2022/08/11 13:15:12;;;;;;;4.95;1.25;;;36.30;25.50;;;;;;4855091;29;20040;-72
2022/08/11 13:17:39;;;;;;;4.13;1.33;;;37.20;26.40;;;;;;4852884;29;20210;-74
2022/08/11 13:20:07;;;;;;;3.70;1.45;;;36.90;27.10;;;;;;4855545;29;20078;-71
2022/08/11 13:22:36;;;;;;;5.05;0.93;;;37.10;26.90;;;;;;4853972;29;20040;-71
2022/08/11 13:25:03;;;;;;;6.30;1.20;;;37.20;27.00;;;;;;4850239;29;20042;-71
2022/08/11 13:27:29;;;;;;;3.25;1.30;;;37.40;26.80;;;;;;4855675;29;20038;-73
2022/08/11 13:31:10;;;;;;;3.58;1.08;;;36.90;26.30;;;;;;4849102;29;20492;-71
2022/08/11 13:32:43;;;;;;;3.28;1.10;;;37.00;26.40;;;;;;4856672;29;20042;-71
2022/08/11 13:35:13;;;;;;;3.30;0.98;;;37.10;27.40;;;;;;4851917;29;20041;-71
2022/08/11 13:37:40;;;;;;;4.88;1.10;;;36.60;25.50;;;;;;4850726;29;20042;-72
2022/08/11 13:40:07;;;;;;;2.53;1.20;;;37.40;26.50;;;;;;4855014;29;20109;-71
2022/08/11 13:42:33;;;;;;;2.70;1.10;;;37.20;26.80;;;;;;4853855;29;20496;-71
2022/08/11 13:44:59;;;;;;;4.63;1.30;;;37.60;25.40;;;;;;4855881;29;20046;-72
2022/08/11 13:47:25;;;;;;;5.05;1.17;;;37.70;25.00;;;;;;4853144;29;20366;-71
2022/08/11 13:49:52;;;;;;;3.33;1.00;;;37.30;25.00;;;;;;4866395;29;20033;-72
2022/08/11 13:52:18;;;;;;;3.78;1.02;;;37.40;25.70;;;;;;4857901;29;20545;-74
2022/08/11 13:54:46;;;;;;;2.25;0.90;;;37.60;26.50;;;;;;4854259;29;20076;-72
2022/08/11 13:57:14;;;;;;;2.38;1.00;;;38.10;25.70;;;;;;4857636;29;20054;-72
2022/08/11 13:59:45;;;;;;;3.60;0.85;;;38.30;25.10;;;;;;4856413;29;20525;-71
2022/08/11 14:02:17;;;;;;;1.67;1.00;;;38.30;23.60;;;;;;4856700;29;20134;-71
2022/08/11 14:05:08;;;;;;;1.10;0.77;;;38.20;24.30;;;;;;4856250;29;20101;-72
2022/08/11 14:07:38;;;;;;;1.52;1.00;;;38.20;25.70;;;;;;4845215;29;20136;-70
2022/08/11 14:10:06;;;;;;;4.28;1.20;;;38.20;24.30;;;;;;4855697;29;20785;-72
2022/08/11 14:15:30;;;;;;;2.80;1.27;;;38.60;25.10;;;;;;4860162;29;20036;-71
2022/08/11 14:18:03;;;;;;;4.10;0.90;;;38.50;24.30;;;;;;4855867;29;20097;-73
2022/08/11 14:22:05;;;;;;;2.38;1.05;;;38.70;24.00;;;;;;4853245;29;20322;-71
2022/08/11 14:23:23;;;;;;;3.35;1.10;;;38.60;24.00;;;;;;4859606;29;20045;-71
2022/08/11 14:28:33;;;;;;;4.07;1.20;;;38.90;24.60;;;;;;4859083;29;20036;-72
2022/08/11 14:31:00;;;;;;;2.50;1.10;;;39.50;23.90;;;;;;4859432;29;20041;-72
2022/08/11 14:33:26;;;;;;;2.28;1.02;;;38.90;24.00;;;;;;4860301;29;20469;-72
2022/08/11 14:35:52;;;;;;;2.75;0.90;;;39.00;24.70;;;;;;4859710;29;20032;-72
2022/08/11 14:38:18;;;;;;;3.55;0.90;;;38.50;23.30;;;;;;4860229;29;20049;-71
2022/08/11 14:49:00;;;;;;;1.77;0.95;;;38.20;23.80;;;;;;4859391;29;20044;-73
2022/08/11 14:51:26;;;;;;;2.13;1.15;;;38.60;23.70;;;;;;4859972;29;20488;-71
2022/08/11 14:56:34;;;;;;;2.67;1.10;;;38.70;23.10;;;;;;4859794;29;20082;-72
2022/08/11 14:56:39;;;;;;;2.42;0.93;;;38.60;23.80;;;;;;4856475;29;20058;-70
2022/08/11 14:59:05;;;;;;;5.18;1.20;;;39.20;22.90;;;;;;4853863;29;20105;-71
2022/08/11 15:04:16;;;;;;;2.92;1.02;;;39.30;23.40;;;;;;4859532;29;20153;-73
2022/08/11 15:06:41;;;;;;;3.15;0.90;;;39.60;22.20;;;;;;5009721;23;20065;-73
2022/08/11 15:09:07;;;;;;;1.52;0.70;;;39.20;21.30;;;;;;4858651;29;20041;-71
2022/08/11 15:17:06;;;;;;;1.70;0.95;;;39.30;22.30;;;;;;4860274;29;20053;-70
2022/08/11 15:17:08;;;;;;;2.25;0.80;;;39.00;22.40;;;;;;4855271;29;20534;-70
2022/08/11 15:24:17;;;;;;;3.35;0.80;;;39.40;22.20;;;;;;4842217;29;20037;-72
2022/08/11 15:25:08;;;;;;;3.80;0.70;;;39.80;22.80;;;;;;4852313;29;20094;-74
2022/08/11 15:38:57;;;;;;;2.33;0.60;;;39.50;21.60;;;;;;4855180;29;20049;-72
2022/08/11 15:47:04;;;;;;;1.70;0.90;;;38.90;21.90;;;;;;4852179;29;20097;-71
2022/08/11 15:49:35;;;;;;;2.85;0.82;;;39.20;20.60;;;;;;4855975;29;20066;-72
2022/08/11 15:52:09;;;;;;;3.08;0.80;;;39.70;20.80;;;;;;4849145;29;20029;-71
2022/08/11 15:54:40;;;;;;;1.25;0.35;;;39.50;20.50;;;;;;4859692;29;20545;-71
2022/08/11 15:57:07;;;;;;;2.50;0.77;;;39.60;23.30;;;;;;4857869;29;20533;-71
2022/08/11 16:05:05;;;;;;;3.20;0.95;;;39.10;21.50;;;;;;4860216;29;20521;-70
2022/08/11 16:07:34;;;;;;;4.47;0.98;;;39.40;21.10;;;;;;4859338;29;20057;-71
2022/08/11 16:10:14;;;;;;;;;;;39.30;21.80;;;;;;4858906;29;20098;-71
2022/08/11 16:18:19;;;;;;;3.20;0.80;;;39.10;21.40;;;;;;4858476;29;20429;-72
2022/08/11 16:20:48;;;;;;;2.30;0.65;;;39.10;22.30;;;;;;4857992;29;20120;-71
2022/08/11 16:23:15;;;;;;;1.02;0.52;;;39.10;21.60;;;;;;4859984;29;20109;-72
2022/08/11 16:25:42;;;;;;;1.73;0.60;;;39.40;20.90;;;;;;4852979;29;20042;-71
2022/08/11 16:28:10;;;;;;;1.33;0.70;;;39.50;22.10;;;;;;4847491;29;20040;-71
2022/08/11 16:30:40;;;;;;;4.00;0.80;;;38.80;21.80;;;;;;4837514;29;20033;-71
2022/08/11 16:33:05;;;;;;;;;;;38.80;22.20;;;;;;4852167;29;20033;-73
2022/08/11 16:38:34;;;;;;;1.20;0.60;;;38.00;22.10;;;;;;4855487;29;20044;-71
2022/08/11 16:41:08;;;;;;;2.13;0.70;;;37.60;22.60;;;;;;4848614;29;20994;-72
2022/08/11 16:49:30;;;;;;;3.05;0.88;;;37.90;22.50;;;;;;4855856;29;20106;-71
2022/08/11 16:51:56;;;;;;;2.85;0.68;;;37.40;25.30;;;;;;4832356;29;20026;-71
2022/08/11 16:54:22;;;;;;;0.70;0.55;;;37.20;25.30;;;;;;4837844;29;20093;-71
2022/08/11 16:56:52;;;;;;;1.60;0.77;;;36.90;23.90;;;;;;4846043;29;20446;-72
2022/08/11 16:59:37;;;;;;;3.45;0.80;;;36.90;25.10;;;;;;4858543;29;20048;-70
2022/08/11 17:13:07;;;;;;;3.75;0.80;;;36.70;24.30;;;;;;4849465;29;20059;-70
2022/08/11 17:13:43;;;;;;;1.23;0.60;;;35.40;26.20;;;;;;4839465;29;20057;-73
2022/08/11 17:16:12;;;;;;;3.38;0.95;;;34.60;27.10;;;;;;4855011;29;20053;-71
2022/08/11 17:18:48;;;;;;;2.97;0.80;;;33.50;28.30;;;;;;4856705;29;20153;-72
2022/08/11 17:21:21;;;;;;;3.75;0.82;;;32.70;29.30;;;;;;4919135;24;20527;-70
2022/08/11 17:23:58;;;;;;;3.85;1.00;;;32.20;29.50;;;;;;4856356;29;20108;-71
2022/08/11 17:26:56;;;;;;;1.33;0.68;;;31.40;31.20;;;;;;4849204;29;20037;-70
2022/08/11 17:29:27;;;;;;;2.38;0.95;;;30.90;32.00;;;;;;4858087;29;20045;-70
2022/08/11 17:37:29;;;;;;;3.50;1.02;;;29.50;36.50;;;;;;4852186;29;20029;-69
2022/08/11 17:39:57;;;;;;;6.28;1.15;;;29.00;37.80;;;;;;4855607;29;20041;-70
2022/08/11 17:50:40;;;;;;;2.65;1.33;;;28.00;41.00;;;;;;4857731;29;20447;-70
2022/08/11 18:01:25;;;;;;;2.20;0.90;;;27.30;43.20;;;;;;4841621;29;20094;-70
2022/08/11 18:03:53;;;;;;;3.28;1.05;;;27.20;42.50;;;;;;4839489;29;20038;-71
2022/08/11 18:06:20;;;;;;;1.90;1.15;;;27.00;43.00;;;;;;4841004;29;20038;-70
